createdAt,value
2022-12-25T00:01:32.222Z,6.35
2022-12-25T00:04:00.896Z,6.46
2022-12-25T00:06:30.643Z,6.40
2022-12-25T00:09:00.185Z,6.32
2022-12-25T00:11:28.529Z,6.24
2022-12-25T00:13:56.886Z,6.21
2022-12-25T00:16:27.451Z,6.19
2022-12-25T00:18:59.069Z,6.17
2022-12-25T00:21:27.920Z,6.11
2022-12-25T00:23:59.302Z,6.10
2022-12-25T00:26:29.079Z,6.10
2022-12-25T00:28:59.250Z,5.91
2022-12-25T00:31:27.770Z,6.10
2022-12-25T00:33:56.222Z,6.12
2022-12-25T00:36:24.904Z,6.16
2022-12-25T00:38:53.213Z,6.13
2022-12-25T00:41:38.713Z,6.13
2022-12-25T00:44:08.661Z,6.08
2022-12-25T00:46:39.493Z,6.03
2022-12-25T00:49:08.339Z,5.99
2022-12-25T00:51:36.989Z,5.94
2022-12-25T00:54:11.397Z,5.87
2022-12-25T00:56:41.171Z,5.82
2022-12-25T00:59:11.721Z,5.85
2022-12-25T01:01:40.923Z,5.83
2022-12-25T01:04:11.885Z,5.64
2022-12-25T01:06:43.058Z,5.90
2022-12-25T01:09:31.067Z,5.85
2022-12-25T01:12:00.775Z,5.74
2022-12-25T01:14:29.012Z,5.68
2022-12-25T01:16:57.436Z,5.66
2022-12-25T01:19:27.924Z,5.60
2022-12-25T01:22:03.410Z,5.56
2022-12-25T01:24:39.375Z,5.52
2022-12-25T01:27:19.432Z,5.55
2022-12-25T01:29:50.913Z,5.50
2022-12-25T01:32:21.131Z,5.61
2022-12-25T01:35:12.171Z,5.59
2022-12-25T01:37:42.920Z,5.54
2022-12-25T01:40:20.233Z,5.51
2022-12-25T01:43:06.122Z,5.51
2022-12-25T01:50:23.736Z,5.32
2022-12-25T01:52:52.899Z,5.36
2022-12-25T01:55:21.390Z,5.31
2022-12-25T01:57:51.544Z,5.30
2022-12-25T02:00:21.142Z,5.17
2022-12-25T02:02:51.202Z,5.31
2022-12-25T02:05:27.284Z,4.55
2022-12-25T02:07:56.936Z,5.22
2022-12-25T02:10:25.307Z,5.16
2022-12-25T02:12:55.278Z,5.10
2022-12-25T02:15:28.753Z,5.13
2022-12-25T02:18:04.191Z,5.17
2022-12-25T02:21:01.097Z,5.14
2022-12-25T02:23:56.697Z,5.10
2022-12-25T02:26:53.167Z,4.10
2022-12-25T02:29:30.643Z,4.82
2022-12-25T02:32:03.798Z,4.95
2022-12-25T02:34:38.588Z,4.99
2022-12-25T02:37:14.172Z,5.03
2022-12-25T02:39:59.873Z,5.04
2022-12-25T02:43:13.677Z,4.98
2022-12-25T02:46:14.400Z,4.86
2022-12-25T02:49:04.284Z,4.70
2022-12-25T02:51:53.298Z,4.78
2022-12-25T02:54:44.010Z,4.94
2022-12-25T02:57:33.510Z,4.92
2022-12-25T03:00:22.674Z,4.76
2022-12-25T03:03:12.203Z,4.68
2022-12-25T03:06:00.542Z,4.73
2022-12-25T03:08:35.444Z,4.93
2022-12-25T03:11:23.128Z,4.94
2022-12-25T03:13:56.237Z,4.67
2022-12-25T03:16:47.217Z,4.82
2022-12-25T03:19:31.501Z,4.75
2022-12-25T03:22:17.771Z,4.72
2022-12-25T03:25:04.162Z,4.70
2022-12-25T03:27:36.017Z,4.30
2022-12-25T03:30:23.281Z,4.74
2022-12-25T03:32:58.920Z,4.81
2022-12-25T03:35:44.370Z,4.87
2022-12-25T03:38:46.428Z,4.90
2022-12-25T03:41:50.933Z,4.86
2022-12-25T03:44:56.702Z,4.85
2022-12-25T03:47:49.062Z,4.81
2022-12-25T03:50:40.278Z,4.79
2022-12-25T03:53:32.374Z,3.99
2022-12-25T03:56:18.995Z,4.73
2022-12-25T03:59:10.546Z,4.71
2022-12-25T04:01:56.776Z,4.69
2022-12-25T04:04:42.653Z,4.66
2022-12-25T04:07:28.442Z,4.62
2022-12-25T04:10:15.933Z,4.68
2022-12-25T04:13:01.943Z,4.71
2022-12-25T04:15:47.945Z,4.74
2022-12-25T04:18:34.052Z,4.69
2022-12-25T04:21:19.777Z,4.67
2022-12-25T04:24:05.604Z,4.69
2022-12-25T04:26:53.030Z,4.70
2022-12-25T04:29:38.831Z,4.62
2022-12-25T04:32:24.737Z,4.61
2022-12-25T04:35:10.628Z,4.62
2022-12-25T04:37:39.036Z,4.67
2022-12-25T04:40:08.566Z,4.73
2022-12-25T04:42:38.375Z,4.76
2022-12-25T04:45:07.564Z,4.73
2022-12-25T04:47:35.947Z,4.74
2022-12-25T04:50:04.907Z,4.76
2022-12-25T04:52:36.926Z,4.76
2022-12-25T04:55:06.542Z,4.68
2022-12-25T04:57:35.138Z,4.75
2022-12-25T05:00:06.269Z,4.75
2022-12-25T05:02:34.971Z,4.73
2022-12-25T05:05:03.479Z,4.76
2022-12-25T05:07:31.896Z,4.71
2022-12-25T05:10:00.316Z,4.66
2022-12-25T05:12:28.752Z,4.63
2022-12-25T05:14:57.027Z,4.59
2022-12-25T05:17:26.918Z,4.64
2022-12-25T05:19:55.298Z,4.70
2022-12-25T05:22:23.670Z,4.71
2022-12-25T05:24:52.007Z,4.70
2022-12-25T05:27:20.461Z,4.72
2022-12-25T05:29:49.810Z,4.71
2022-12-25T05:32:18.326Z,4.68
2022-12-25T05:34:48.227Z,4.61
2022-12-25T05:37:16.545Z,4.60
2022-12-25T05:39:44.928Z,4.57
2022-12-25T05:42:13.375Z,4.57
2022-12-25T05:44:41.748Z,4.58
2022-12-25T05:47:10.265Z,4.63
2022-12-25T05:49:38.704Z,4.66
2022-12-25T05:52:08.523Z,4.44
2022-12-25T05:54:37.049Z,4.68
2022-12-25T05:57:05.599Z,4.70
2022-12-25T05:59:35.079Z,4.71
2022-12-25T06:02:03.520Z,4.61
2022-12-25T06:04:31.925Z,4.57
2022-12-25T06:07:00.366Z,4.59
2022-12-25T06:09:30.172Z,4.67
2022-12-25T06:11:58.519Z,4.74
2022-12-25T06:14:26.958Z,4.85
2022-12-25T06:16:55.447Z,4.94
2022-12-25T06:19:24.075Z,5.06
2022-12-25T06:21:54.589Z,5.20
2022-12-25T06:24:24.436Z,5.10
2022-12-25T06:26:54.224Z,5.42
2022-12-25T06:29:23.668Z,5.55
2022-12-25T06:31:57.307Z,5.64
2022-12-25T06:34:26.042Z,5.73
2022-12-25T06:36:54.831Z,5.81
2022-12-25T06:39:25.612Z,5.88
2022-12-25T06:41:55.952Z,5.93
2022-12-25T06:44:24.363Z,6.01
2022-12-25T06:46:54.121Z,6.05
2022-12-25T06:49:23.750Z,6.07
2022-12-25T06:51:52.149Z,6.11
2022-12-25T06:54:20.593Z,6.16
2022-12-25T06:56:51.251Z,6.21
2022-12-25T06:59:21.295Z,6.24
2022-12-25T07:01:51.823Z,6.13
2022-12-25T07:04:25.156Z,6.37
2022-12-25T07:06:53.783Z,6.44
2022-12-25T07:09:22.195Z,6.44
2022-12-25T07:11:50.573Z,6.50
2022-12-25T07:14:24.238Z,6.59
2022-12-25T07:16:53.512Z,6.62
2022-12-25T07:19:21.865Z,6.71
2022-12-25T07:21:50.271Z,6.80
2022-12-25T07:24:20.738Z,6.90
2022-12-25T07:26:49.216Z,7.02
2022-12-25T07:29:17.820Z,7.07
2022-12-25T07:31:48.039Z,7.19
2022-12-25T07:34:18.532Z,7.28
2022-12-25T07:36:46.991Z,7.33
2022-12-25T07:39:16.424Z,7.40
2022-12-25T07:41:45.113Z,7.44
2022-12-25T07:44:16.782Z,7.49
2022-12-25T07:46:45.341Z,7.56
2022-12-25T07:49:15.397Z,7.62
2022-12-25T07:51:43.810Z,7.66
2022-12-25T07:54:12.134Z,7.73
2022-12-25T07:56:40.557Z,7.79
2022-12-25T07:59:08.948Z,7.85
2022-12-25T08:01:37.395Z,7.89
2022-12-25T08:04:05.979Z,7.95
2022-12-25T08:06:37.289Z,8.02
2022-12-25T08:09:08.280Z,7.90
2022-12-25T08:11:37.475Z,8.10
2022-12-25T08:14:07.954Z,8.03
2022-12-25T08:16:39.796Z,8.19
2022-12-25T08:19:08.574Z,8.22
2022-12-25T08:21:38.697Z,8.27
2022-12-25T08:24:07.736Z,8.29
2022-12-25T08:26:36.101Z,8.33
2022-12-25T08:29:04.840Z,8.39
2022-12-25T08:31:37.274Z,8.40
2022-12-25T08:34:10.059Z,8.53
2022-12-25T08:36:40.028Z,8.60
2022-12-25T08:39:08.793Z,8.46
2022-12-25T08:41:37.502Z,8.69
2022-12-25T08:44:06.449Z,8.72
2022-12-25T08:46:34.942Z,8.57
2022-12-25T08:49:04.423Z,8.76
2022-12-25T08:51:33.201Z,8.80
2022-12-25T08:54:03.086Z,8.83
2022-12-25T08:56:31.431Z,8.85
2022-12-25T08:58:59.831Z,8.87
2022-12-25T09:01:28.324Z,8.95
2022-12-25T09:03:56.720Z,9.00
2022-12-25T09:06:25.062Z,9.05
2022-12-25T09:08:53.436Z,9.09
2022-12-25T09:11:24.254Z,9.15
2022-12-25T09:13:52.660Z,9.16
2022-12-25T09:16:22.679Z,9.13
2022-12-25T09:18:51.793Z,9.25
2022-12-25T09:21:20.663Z,9.26
2022-12-25T09:23:49.309Z,9.30
2022-12-25T09:26:18.998Z,9.32
2022-12-25T09:28:52.398Z,9.34
2022-12-25T09:31:22.734Z,9.39
2022-12-25T09:33:51.910Z,9.41
2022-12-25T09:36:23.438Z,9.44
2022-12-25T09:38:52.424Z,9.46
2022-12-25T09:41:30.047Z,9.50
2022-12-25T09:44:04.236Z,9.44
2022-12-25T09:46:41.081Z,9.54
2022-12-25T09:49:19.731Z,9.40
2022-12-25T09:51:53.432Z,9.46
2022-12-25T09:54:27.872Z,9.65
2022-12-25T09:56:56.470Z,9.65
2022-12-25T09:59:28.167Z,9.51
2022-12-25T10:02:14.563Z,9.68
2022-12-25T10:05:00.815Z,9.71
2022-12-25T10:07:41.443Z,9.72
2022-12-25T10:10:24.398Z,9.77
2022-12-25T10:13:03.523Z,9.80
2022-12-25T10:15:45.057Z,9.81
2022-12-25T10:18:44.793Z,9.83
2022-12-25T10:21:16.135Z,9.10
2022-12-25T10:23:49.426Z,9.89
2022-12-25T10:26:20.924Z,9.68
2022-12-25T10:28:56.274Z,9.99
2022-12-25T10:31:28.917Z,10.01
2022-12-25T10:33:58.105Z,10.04
2022-12-25T10:36:28.149Z,9.95
2022-12-25T10:38:57.288Z,10.12
2022-12-25T10:41:44.505Z,10.18
2022-12-25T10:44:20.511Z,9.99
2022-12-25T10:46:52.828Z,10.21
2022-12-25T10:49:23.041Z,10.25
2022-12-25T10:51:52.335Z,10.29
2022-12-25T10:54:23.492Z,10.10
2022-12-25T10:56:56.622Z,10.34
2022-12-25T10:59:26.571Z,10.33
2022-12-25T11:01:57.540Z,10.34
2022-12-25T11:04:28.911Z,10.36
2022-12-25T11:06:59.934Z,10.26
2022-12-25T11:09:28.791Z,10.41
2022-12-25T11:11:57.387Z,10.44
2022-12-25T11:14:28.187Z,10.46
2022-12-25T11:17:08.965Z,10.49
2022-12-25T11:19:37.495Z,10.53
2022-12-25T11:22:06.572Z,10.57
2022-12-25T11:24:35.408Z,10.49
2022-12-25T11:27:07.640Z,10.43
2022-12-25T11:29:43.688Z,10.57
2022-12-25T11:32:20.495Z,10.58
2022-12-25T11:34:50.929Z,10.59
2022-12-25T11:37:25.241Z,9.70
2022-12-25T11:39:53.605Z,10.57
2022-12-25T11:42:26.470Z,10.42
2022-12-25T11:45:00.603Z,10.09
2022-12-25T11:47:36.944Z,10.43
2022-12-25T11:50:09.316Z,9.98
2022-12-25T11:52:40.213Z,10.60
2022-12-25T11:55:18.344Z,10.62
2022-12-25T11:57:52.716Z,10.65
2022-12-25T12:00:22.511Z,10.64
2022-12-25T12:02:59.052Z,10.68
2022-12-25T12:05:34.778Z,10.53
2022-12-25T12:08:06.338Z,10.46
2022-12-25T12:10:44.051Z,10.78
2022-12-25T12:13:26.460Z,10.81
2022-12-25T12:15:54.980Z,10.80
2022-12-25T12:18:33.234Z,10.85
2022-12-25T12:21:08.033Z,10.08
2022-12-25T12:23:49.113Z,10.03
2022-12-25T12:26:21.438Z,10.93
2022-12-25T12:28:52.492Z,10.96
2022-12-25T12:31:21.286Z,10.99
2022-12-25T12:33:55.775Z,11.03
2022-12-25T12:36:35.584Z,11.05
2022-12-25T12:39:06.633Z,11.08
2022-12-25T12:41:47.508Z,11.10
2022-12-25T12:44:18.539Z,11.16
2022-12-25T12:46:55.406Z,11.22
2022-12-25T12:49:27.038Z,11.06
2022-12-25T12:52:05.994Z,11.28
2022-12-25T12:54:36.789Z,11.18
2022-12-25T12:57:07.524Z,11.29
2022-12-25T12:59:41.127Z,10.71
2022-12-25T13:02:30.123Z,11.33
2022-12-25T13:05:05.315Z,11.36
2022-12-25T13:07:52.137Z,11.35
2022-12-25T13:10:28.421Z,11.39
2022-12-25T13:13:00.711Z,11.27
2022-12-25T13:15:34.978Z,11.43
2022-12-25T13:18:05.666Z,11.45
2022-12-25T13:20:43.113Z,11.47
2022-12-25T13:23:16.613Z,11.44
2022-12-25T13:25:53.742Z,11.44
2022-12-25T13:28:29.795Z,11.45
2022-12-25T13:31:07.823Z,11.47
2022-12-25T13:33:36.504Z,11.49
2022-12-25T13:36:11.162Z,11.52
2022-12-25T13:38:44.457Z,11.52
2022-12-25T13:41:30.540Z,11.54
2022-12-25T13:44:00.077Z,11.52
2022-12-25T13:46:28.873Z,11.34
2022-12-25T13:49:00.487Z,11.48
2022-12-25T13:51:30.965Z,11.59
2022-12-25T13:54:06.597Z,11.59
2022-12-25T13:56:36.510Z,11.42
2022-12-25T13:59:05.653Z,11.37
2022-12-25T14:01:34.173Z,11.58
2022-12-25T14:04:05.553Z,11.55
2022-12-25T14:06:35.928Z,11.56
2022-12-25T14:09:05.761Z,11.58
2022-12-25T14:11:35.129Z,11.60
2022-12-25T14:14:09.994Z,11.46
2022-12-25T14:16:39.174Z,11.62
2022-12-25T14:19:25.591Z,11.66
2022-12-25T14:22:01.484Z,11.67
2022-12-25T14:24:32.095Z,11.69
2022-12-25T14:27:03.212Z,11.73
2022-12-25T14:29:37.038Z,11.75
2022-12-25T14:32:07.832Z,11.75
2022-12-25T14:34:36.938Z,11.77
2022-12-25T14:37:11.112Z,11.76
2022-12-25T14:39:40.152Z,11.76
2022-12-25T14:42:21.665Z,11.78
2022-12-25T14:45:03.269Z,11.78
2022-12-25T14:47:33.354Z,11.80
2022-12-25T14:50:01.697Z,11.81
2022-12-25T14:52:39.260Z,11.86
2022-12-25T14:55:18.193Z,11.85
2022-12-25T14:57:50.045Z,11.86
2022-12-25T15:00:27.193Z,10.90
2022-12-25T15:02:58.361Z,11.69
2022-12-25T15:05:33.013Z,11.87
2022-12-25T15:08:07.192Z,11.57
2022-12-25T15:13:25.398Z,11.92
2022-12-25T15:16:00.629Z,11.76
2022-12-25T15:18:34.944Z,11.77
2022-12-25T15:21:03.842Z,11.90
2022-12-25T15:23:34.229Z,11.92
2022-12-25T15:26:03.666Z,11.92
2022-12-25T15:28:32.010Z,11.94
2022-12-25T15:31:00.568Z,11.92
2022-12-25T15:33:29.036Z,11.95
2022-12-25T15:35:57.435Z,11.96
2022-12-25T15:38:25.788Z,11.98
2022-12-25T15:40:55.624Z,12.00
2022-12-25T15:43:40.311Z,11.98
2022-12-25T15:46:10.653Z,11.80
2022-12-25T15:48:39.082Z,11.98
2022-12-25T15:51:07.507Z,11.97
2022-12-25T15:53:35.788Z,11.99
2022-12-25T15:56:06.047Z,12.00
2022-12-25T15:58:34.509Z,12.02
2022-12-25T16:01:04.259Z,12.03
2022-12-25T16:03:32.857Z,12.01
2022-12-25T16:06:01.280Z,12.02
2022-12-25T16:08:29.597Z,12.02
2022-12-25T16:10:58.010Z,12.05
2022-12-25T16:13:27.798Z,12.06
2022-12-25T16:15:56.201Z,12.06
2022-12-25T16:18:24.622Z,12.06
2022-12-25T16:20:53.688Z,11.93
2022-12-25T16:23:22.587Z,12.01
2022-12-25T16:25:51.107Z,11.99
2022-12-25T16:28:19.544Z,11.98
2022-12-25T16:30:49.465Z,11.99
2022-12-25T16:33:17.970Z,12.01
2022-12-25T16:35:47.275Z,12.01
2022-12-25T16:38:15.693Z,12.02
2022-12-25T16:40:44.967Z,12.04
2022-12-25T16:43:16.349Z,12.04
2022-12-25T16:45:50.202Z,12.07
2022-12-25T16:48:18.515Z,12.13
2022-12-25T16:50:46.898Z,12.19
2022-12-25T16:53:15.152Z,12.21
2022-12-25T16:55:44.565Z,12.23
2022-12-25T16:58:13.445Z,12.23
2022-12-25T17:00:47.347Z,12.26
2022-12-25T17:03:19.173Z,12.28
2022-12-25T17:05:47.572Z,12.26
2022-12-25T17:08:20.563Z,12.24
2022-12-25T17:10:56.148Z,12.24
2022-12-25T17:13:24.835Z,12.24
2022-12-25T17:15:53.210Z,12.25
2022-12-25T17:18:23.157Z,12.26
2022-12-25T17:20:52.491Z,12.26
2022-12-25T17:23:20.991Z,12.27
2022-12-25T17:25:49.388Z,12.26
2022-12-25T17:28:17.800Z,12.28
2022-12-25T17:30:46.104Z,12.30
2022-12-25T17:33:14.402Z,12.31
2022-12-25T17:35:44.197Z,12.34
2022-12-25T17:38:13.548Z,12.34
2022-12-25T17:40:41.931Z,12.35
2022-12-25T17:43:14.309Z,12.36
2022-12-25T17:45:47.330Z,12.36
2022-12-25T17:48:15.658Z,12.38
2022-12-25T17:50:45.543Z,12.41
2022-12-25T17:53:14.336Z,12.43
2022-12-25T17:55:43.199Z,12.47
2022-12-25T17:58:13.549Z,12.48
2022-12-25T18:00:41.937Z,12.50
2022-12-25T18:03:12.012Z,12.53
2022-12-25T18:05:40.730Z,12.52
2022-12-25T18:08:11.415Z,12.45
2022-12-25T18:10:41.281Z,12.53
2022-12-25T18:13:10.519Z,12.53
2022-12-25T18:15:39.936Z,12.55
2022-12-25T18:18:09.972Z,12.53
2022-12-25T18:20:40.494Z,12.50
2022-12-25T18:23:11.245Z,12.49
2022-12-25T18:25:42.842Z,12.50
2022-12-25T18:28:12.336Z,12.53
2022-12-25T18:30:41.597Z,12.53
2022-12-25T18:33:11.204Z,12.55
2022-12-25T18:35:41.718Z,12.56
2022-12-25T18:38:12.720Z,12.57
2022-12-25T18:40:43.099Z,12.58
2022-12-25T18:43:12.909Z,12.59
2022-12-25T18:45:41.541Z,12.53
2022-12-25T18:48:12.319Z,12.52
2022-12-25T18:50:41.664Z,12.49
2022-12-25T18:53:12.413Z,12.50
2022-12-25T18:55:41.744Z,12.51
2022-12-25T18:58:10.452Z,12.50
2022-12-25T19:00:39.520Z,12.51
2022-12-25T19:03:10.470Z,12.56
2022-12-25T19:05:40.745Z,12.57
2022-12-25T19:08:12.492Z,12.55
2022-12-25T19:10:41.549Z,12.58
2022-12-25T19:13:10.747Z,12.59
2022-12-25T19:15:42.683Z,12.63
2022-12-25T19:18:12.471Z,12.64
2022-12-25T19:20:41.605Z,12.60
2022-12-25T19:23:12.093Z,12.55
2022-12-25T19:25:41.107Z,12.50
2022-12-25T19:28:11.022Z,12.52
2022-12-25T19:30:39.975Z,12.41
2022-12-25T19:33:12.416Z,12.46
2022-12-25T19:35:46.895Z,12.44
2022-12-25T19:38:16.844Z,12.43
2022-12-25T19:41:00.600Z,12.42
2022-12-25T19:43:30.610Z,12.45
2022-12-25T19:46:01.533Z,12.49
2022-12-25T19:48:31.211Z,12.49
2022-12-25T19:51:00.188Z,12.49
2022-12-25T19:53:30.990Z,12.52
2022-12-25T19:56:02.865Z,12.53
2022-12-25T19:58:31.699Z,12.54
2022-12-25T20:01:00.691Z,12.55
2022-12-25T20:03:29.289Z,12.50
2022-12-25T20:05:57.914Z,12.49
2022-12-25T20:08:26.475Z,12.51
2022-12-25T20:10:56.393Z,12.50
2022-12-25T20:13:25.016Z,12.51
2022-12-25T20:15:53.425Z,12.51
2022-12-25T20:18:22.179Z,12.51
2022-12-25T20:20:50.551Z,12.52
2022-12-25T20:23:18.955Z,12.51
2022-12-25T20:25:47.325Z,12.50
2022-12-25T20:28:17.114Z,12.50
2022-12-25T20:30:45.550Z,12.51
2022-12-25T20:33:14.128Z,12.51
2022-12-25T20:35:46.306Z,12.51
2022-12-25T20:38:15.294Z,12.49
2022-12-25T20:41:24.382Z,12.48
2022-12-25T20:43:37.749Z,12.44
2022-12-25T20:46:10.331Z,12.39
2022-12-25T20:48:38.790Z,12.41
2022-12-25T20:51:09.400Z,12.42
2022-12-25T20:53:38.407Z,12.43
2022-12-25T20:56:07.221Z,12.36
2022-12-25T20:58:37.457Z,12.45
2022-12-25T21:01:07.683Z,12.43
2022-12-25T21:03:36.547Z,12.44
2022-12-25T21:06:05.107Z,12.44
2022-12-25T21:08:33.807Z,12.48
2022-12-25T21:11:02.749Z,12.50
2022-12-25T21:13:33.223Z,12.53
2022-12-25T21:16:06.721Z,12.53
2022-12-25T21:18:35.176Z,12.54
2022-12-25T21:21:07.822Z,12.55
2022-12-25T21:23:37.753Z,12.53
2022-12-25T21:26:14.158Z,12.55
2022-12-25T21:28:42.790Z,12.56
2022-12-25T21:31:12.681Z,12.58
2022-12-25T21:33:52.237Z,12.56
2022-12-25T21:36:23.344Z,12.42
2022-12-25T21:38:56.651Z,12.62
2022-12-25T21:41:25.512Z,12.61
2022-12-25T21:43:55.301Z,12.60
2022-12-25T21:46:26.733Z,12.62
2022-12-25T21:48:55.656Z,12.60
2022-12-25T21:51:44.067Z,12.44
2022-12-25T21:54:13.652Z,12.59
2022-12-25T21:56:45.426Z,12.00
2022-12-25T21:59:16.031Z,12.61
2022-12-25T22:01:46.817Z,12.62
2022-12-25T22:04:17.217Z,12.49
2022-12-25T22:07:03.712Z,12.66
2022-12-25T22:09:32.317Z,12.61
2022-12-25T22:12:18.548Z,12.63
2022-12-25T22:14:55.858Z,12.52
2022-12-25T22:17:45.794Z,12.26
2022-12-25T22:20:16.420Z,12.63
2022-12-25T22:22:45.553Z,12.64
2022-12-25T22:25:15.010Z,12.66
2022-12-25T22:27:44.715Z,12.68
2022-12-25T22:30:15.308Z,12.66
2022-12-25T22:32:46.526Z,12.67
2022-12-25T22:35:15.706Z,12.67
2022-12-25T22:37:44.562Z,12.67
2022-12-25T22:40:15.914Z,12.68
2022-12-25T22:42:44.289Z,12.69
2022-12-25T22:45:13.164Z,12.64
2022-12-25T22:47:41.697Z,12.70
2022-12-25T22:50:14.765Z,12.69
2022-12-25T22:52:43.286Z,12.69
2022-12-25T22:55:12.146Z,12.70
2022-12-25T22:57:40.625Z,12.69
2022-12-25T23:00:10.160Z,12.42
2022-12-25T23:02:38.662Z,12.73
2022-12-25T23:05:08.189Z,12.75
2022-12-25T23:07:38.006Z,12.76
2022-12-25T23:10:07.735Z,12.59
2022-12-25T23:12:53.621Z,12.77
2022-12-25T23:15:22.229Z,12.71
2022-12-25T23:18:09.103Z,12.74
2022-12-25T23:20:55.923Z,12.71
2022-12-25T23:23:43.604Z,12.73
2022-12-25T23:26:12.692Z,12.71
2022-12-25T23:28:59.988Z,12.74
2022-12-25T23:31:31.906Z,11.95
2022-12-25T23:34:00.689Z,12.77
2022-12-25T23:36:29.400Z,12.79
2022-12-25T23:39:03.243Z,12.80
2022-12-25T23:41:37.338Z,12.78
2022-12-25T23:44:05.765Z,12.79
2022-12-25T23:46:34.223Z,12.78
2022-12-25T23:49:02.858Z,12.79
2022-12-25T23:51:31.721Z,12.78
2022-12-25T23:54:01.520Z,12.81
2022-12-25T23:56:29.939Z,12.81
2022-12-25T23:58:58.349Z,12.82
